sensor_id;sensor_type;location;lat;lon;timestamp;pressure;altitude;pressure_sealevel;temperature;humidity
5812;BME280;2932;52.400;9.558;2023-03-01T03:43:33;102394.59;;;5.02;56.83
5812;BME280;2932;52.400;9.558;2023-03-01T03:45:59;102395.97;;;5.00;56.52
5812;BME280;2932;52.400;9.558;2023-03-01T03:48:24;102396.00;;;5.05;56.01
5812;BME280;2932;52.400;9.558;2023-03-01T03:50:52;102397.09;;;5.04;56.00
5812;BME280;2932;52.400;9.558;2023-03-01T03:53:20;102395.81;;;5.17;56.03
5812;BME280;2932;52.400;9.558;2023-03-01T03:55:45;102393.63;;;5.19;55.46
5812;BME280;2932;52.400;9.558;2023-03-01T03:58:15;102400.41;;;5.06;55.60
5812;BME280;2932;52.400;9.558;2023-03-01T04:00:43;102399.03;;;5.09;55.52
5812;BME280;2932;52.400;9.558;2023-03-01T04:03:09;102403.41;;;5.05;55.46
5812;BME280;2932;52.400;9.558;2023-03-01T04:05:36;102403.84;;;4.91;55.42
5812;BME280;2932;52.400;9.558;2023-03-01T04:08:02;102397.91;;;4.62;54.97
5812;BME280;2932;52.400;9.558;2023-03-01T04:10:39;102401.28;;;4.43;56.05
5812;BME280;2932;52.400;9.558;2023-03-01T04:13:07;102406.41;;;4.02;56.62
5812;BME280;2932;52.400;9.558;2023-03-01T04:15:33;102405.31;;;4.03;57.77
5812;BME280;2932;52.400;9.558;2023-03-01T04:17:59;102407.69;;;4.21;58.45
5812;BME280;2932;52.400;9.558;2023-03-01T04:20:28;102417.72;;;4.38;57.80
5812;BME280;2932;52.400;9.558;2023-03-01T04:22:59;102414.41;;;4.67;57.50
5812;BME280;2932;52.400;9.558;2023-03-01T04:25:25;102422.97;;;4.81;56.77
5812;BME280;2932;52.400;9.558;2023-03-01T04:27:50;102416.50;;;4.97;56.30
5812;BME280;2932;52.400;9.558;2023-03-01T04:30:16;102417.91;;;5.00;55.65
5812;BME280;2932;52.400;9.558;2023-03-01T04:32:41;102422.03;;;5.02;55.61
5812;BME280;2932;52.400;9.558;2023-03-01T04:35:07;102418.44;;;4.97;55.58
5812;BME280;2932;52.400;9.558;2023-03-01T04:37:33;102418.72;;;5.00;55.25
5812;BME280;2932;52.400;9.558;2023-03-01T04:40:00;102423.63;;;4.93;55.21
5812;BME280;2932;52.400;9.558;2023-03-01T04:42:25;102423.91;;;4.97;55.08
5812;BME280;2932;52.400;9.558;2023-03-01T04:44:51;102425.31;;;4.99;54.84
5812;BME280;2932;52.400;9.558;2023-03-01T04:47:17;102419.72;;;4.84;54.86
5812;BME280;2932;52.400;9.558;2023-03-01T04:49:42;102412.00;;;4.81;55.07
5812;BME280;2932;52.400;9.558;2023-03-01T04:52:07;102413.66;;;4.82;55.30
5812;BME280;2932;52.400;9.558;2023-03-01T04:54:35;102409.81;;;4.78;55.46
5812;BME280;2932;52.400;9.558;2023-03-01T04:57:01;102412.88;;;4.87;55.33
5812;BME280;2932;52.400;9.558;2023-03-01T04:59:27;102416.00;;;5.00;55.32
5812;BME280;2932;52.400;9.558;2023-03-01T05:01:53;102407.13;;;4.88;55.33
5812;BME280;2932;52.400;9.558;2023-03-01T05:04:25;102397.44;;;4.71;55.69
5812;BME280;2932;52.400;9.558;2023-03-01T05:06:50;102401.25;;;4.69;55.16
5812;BME280;2932;52.400;9.558;2023-03-01T05:09:16;102400.16;;;4.71;55.09
5812;BME280;2932;52.400;9.558;2023-03-01T05:11:41;102392.84;;;4.86;55.00
5812;BME280;2932;52.400;9.558;2023-03-01T05:14:08;102392.25;;;4.74;55.17
5812;BME280;2932;52.400;9.558;2023-03-01T05:16:35;102388.03;;;4.61;55.17
5812;BME280;2932;52.400;9.558;2023-03-01T05:19:01;102398.28;;;4.76;54.94
5812;BME280;2932;52.400;9.558;2023-03-01T05:21:37;102392.03;;;4.86;54.62
5812;BME280;2932;52.400;9.558;2023-03-01T05:24:22;102391.47;;;4.84;55.36
5812;BME280;2932;52.400;9.558;2023-03-01T05:26:47;102397.53;;;4.91;55.24
5812;BME280;2932;52.400;9.558;2023-03-01T05:29:13;102398.34;;;4.86;55.21
5812;BME280;2932;52.400;9.558;2023-03-01T05:31:38;102393.00;;;4.64;55.79
5812;BME280;2932;52.400;9.558;2023-03-01T05:34:04;102388.06;;;4.66;55.53
5812;BME280;2932;52.400;9.558;2023-03-01T05:36:29;102387.06;;;4.83;55.33
5812;BME280;2932;52.400;9.558;2023-03-01T05:38:55;102391.19;;;4.85;55.26
5812;BME280;2932;52.400;9.558;2023-03-01T05:41:20;102385.06;;;4.68;55.38
5812;BME280;2932;52.400;9.558;2023-03-01T05:43:46;102383.47;;;4.72;55.21
5812;BME280;2932;52.400;9.558;2023-03-01T05:46:11;102379.34;;;4.75;54.87
5812;BME280;2932;52.400;9.558;2023-03-01T05:48:38;102381.69;;;4.56;55.31
5812;BME280;2932;52.400;9.558;2023-03-01T05:51:04;102382.66;;;4.40;54.95
5812;BME280;2932;52.400;9.558;2023-03-01T05:53:29;102376.75;;;3.94;55.37
5812;BME280;2932;52.400;9.558;2023-03-01T05:55:54;102384.50;;;4.02;55.52
5812;BME280;2932;52.400;9.558;2023-03-01T05:58:20;102383.84;;;3.90;55.27
5812;BME280;2932;52.400;9.558;2023-03-01T06:00:47;102386.06;;;3.93;55.94
5812;BME280;2932;52.400;9.558;2023-03-01T06:03:15;102389.03;;;4.18;55.79
5812;BME280;2932;52.400;9.558;2023-03-01T06:05:41;102398.44;;;4.27;55.96
5812;BME280;2932;52.400;9.558;2023-03-01T06:08:09;102398.00;;;4.41;55.63
5812;BME280;2932;52.400;9.558;2023-03-01T06:10:35;102398.38;;;4.22;55.96
5812;BME280;2932;52.400;9.558;2023-03-01T06:13:00;102396.16;;;4.19;55.68
5812;BME280;2932;52.400;9.558;2023-03-01T06:15:26;102402.31;;;4.31;55.53
5812;BME280;2932;52.400;9.558;2023-03-01T06:17:53;102402.50;;;3.93;56.01
5812;BME280;2932;52.400;9.558;2023-03-01T06:20:22;102407.03;;;3.82;56.97
5812;BME280;2932;52.400;9.558;2023-03-01T06:22:48;102402.69;;;3.86;57.84
5812;BME280;2932;52.400;9.558;2023-03-01T06:25:18;102410.09;;;3.64;58.50
5812;BME280;2932;52.400;9.558;2023-03-01T06:27:44;102414.97;;;3.84;58.72
5812;BME280;2932;52.400;9.558;2023-03-01T06:30:11;102412.56;;;3.87;58.41
5812;BME280;2932;52.400;9.558;2023-03-01T06:32:37;102403.09;;;4.00;58.38
5812;BME280;2932;52.400;9.558;2023-03-01T06:35:05;102414.94;;;4.06;58.37
5812;BME280;2932;52.400;9.558;2023-03-01T06:37:30;102413.84;;;4.07;57.67
5812;BME280;2932;52.400;9.558;2023-03-01T06:39:55;102404.59;;;3.86;57.34
5812;BME280;2932;52.400;9.558;2023-03-01T06:42:21;102396.06;;;3.82;58.24
5812;BME280;2932;52.400;9.558;2023-03-01T06:44:46;102394.53;;;3.91;57.80
5812;BME280;2932;52.400;9.558;2023-03-01T06:47:12;102396.19;;;3.92;57.44
5812;BME280;2932;52.400;9.558;2023-03-01T06:49:37;102391.31;;;4.26;57.50
5812;BME280;2932;52.400;9.558;2023-03-01T06:52:02;102396.47;;;4.55;56.98
5812;BME280;2932;52.400;9.558;2023-03-01T06:54:28;102392.31;;;4.89;56.22
5812;BME280;2932;52.400;9.558;2023-03-01T06:56:53;102380.16;;;4.70;56.14
5812;BME280;2932;52.400;9.558;2023-03-01T06:59:19;102384.31;;;4.83;56.05
5812;BME280;2932;52.400;9.558;2023-03-01T07:01:45;102391.31;;;5.00;55.89
5812;BME280;2932;52.400;9.558;2023-03-01T07:04:11;102388.41;;;5.22;55.75
5812;BME280;2932;52.400;9.558;2023-03-01T07:06:36;102393.78;;;5.54;55.14
5812;BME280;2932;52.400;9.558;2023-03-01T07:09:02;102404.78;;;5.59;55.03
5812;BME280;2932;52.400;9.558;2023-03-01T07:11:27;102396.16;;;5.35;55.82
5812;BME280;2932;52.400;9.558;2023-03-01T07:13:52;102396.47;;;5.44;56.25
5812;BME280;2932;52.400;9.558;2023-03-01T07:16:18;102400.91;;;5.60;55.83
5812;BME280;2932;52.400;9.558;2023-03-01T07:18:45;102392.75;;;5.86;55.61
5812;BME280;2932;52.400;9.558;2023-03-01T07:21:12;102396.31;;;5.81;56.08
5812;BME280;2932;52.400;9.558;2023-03-01T07:23:37;102394.47;;;5.92;55.85
5812;BME280;2932;52.400;9.558;2023-03-01T07:26:03;102395.06;;;6.24;55.40
5812;BME280;2932;52.400;9.558;2023-03-01T07:28:28;102378.56;;;6.34;55.12
5812;BME280;2932;52.400;9.558;2023-03-01T07:30:54;102383.53;;;6.32;55.33
5812;BME280;2932;52.400;9.558;2023-03-01T07:33:20;102381.84;;;6.62;54.61
5812;BME280;2932;52.400;9.558;2023-03-01T07:35:46;102380.75;;;6.58;54.26
5812;BME280;2932;52.400;9.558;2023-03-01T07:38:11;102370.03;;;6.51;54.34
5812;BME280;2932;52.400;9.558;2023-03-01T07:40:36;102372.22;;;6.64;54.58
5812;BME280;2932;52.400;9.558;2023-03-01T07:43:02;102371.91;;;6.86;54.24
5812;BME280;2932;52.400;9.558;2023-03-01T07:45:28;102367.19;;;7.02;54.04
5812;BME280;2932;52.400;9.558;2023-03-01T07:47:55;102367.38;;;7.31;53.75
5812;BME280;2932;52.400;9.558;2023-03-01T07:50:21;102364.63;;;7.31;53.12
5812;BME280;2932;52.400;9.558;2023-03-01T07:52:48;102364.09;;;7.24;53.48
5812;BME280;2932;52.400;9.558;2023-03-01T07:55:15;102364.06;;;7.29;53.17
5812;BME280;2932;52.400;9.558;2023-03-01T07:57:41;102363.00;;;7.25;53.13
5812;BME280;2932;52.400;9.558;2023-03-01T08:00:08;102365.19;;;7.23;53.67
5812;BME280;2932;52.400;9.558;2023-03-01T08:02:34;102367.38;;;7.31;53.77
5812;BME280;2932;52.400;9.558;2023-03-01T08:05:00;102370.34;;;7.50;53.36
5812;BME280;2932;52.400;9.558;2023-03-01T08:07:26;102372.72;;;7.66;53.38
5812;BME280;2932;52.400;9.558;2023-03-01T08:09:51;102373.56;;;7.62;53.86
5812;BME280;2932;52.400;9.558;2023-03-01T08:12:16;102371.34;;;8.08;54.02
5812;BME280;2932;52.400;9.558;2023-03-01T08:14:42;102365.25;;;8.16;53.16
5812;BME280;2932;52.400;9.558;2023-03-01T08:17:07;102368.25;;;8.20;52.98
5812;BME280;2932;52.400;9.558;2023-03-01T08:19:33;102366.88;;;8.17;52.81
5812;BME280;2932;52.400;9.558;2023-03-01T08:22:01;102360.47;;;8.27;52.23
5812;BME280;2932;52.400;9.558;2023-03-01T08:24:27;102370.50;;;8.52;52.53
5812;BME280;2932;52.400;9.558;2023-03-01T08:26:52;102368.31;;;8.49;52.73
5812;BME280;2932;52.400;9.558;2023-03-01T08:29:18;102367.41;;;8.58;52.10
5812;BME280;2932;52.400;9.558;2023-03-01T08:31:43;102361.91;;;8.82;51.55
5812;BME280;2932;52.400;9.558;2023-03-01T08:34:12;102364.88;;;8.91;51.90
5812;BME280;2932;52.400;9.558;2023-03-01T08:36:40;102359.34;;;8.91;52.15
5812;BME280;2932;52.400;9.558;2023-03-01T08:39:07;102361.91;;;9.11;51.51
5812;BME280;2932;52.400;9.558;2023-03-01T08:41:33;102348.44;;;9.05;50.70
5812;BME280;2932;52.400;9.558;2023-03-01T08:43:58;102350.56;;;9.13;51.08
5812;BME280;2932;52.400;9.558;2023-03-01T08:46:26;102352.06;;;9.24;50.78
5812;BME280;2932;52.400;9.558;2023-03-01T08:48:51;102351.41;;;9.32;50.87
5812;BME280;2932;52.400;9.558;2023-03-01T08:51:17;102353.75;;;9.44;50.22
5812;BME280;2932;52.400;9.558;2023-03-01T08:53:43;102356.16;;;9.50;49.99
5812;BME280;2932;52.400;9.558;2023-03-01T08:56:09;102356.25;;;10.01;49.61
5812;BME280;2932;52.400;9.558;2023-03-01T08:58:36;102351.47;;;10.07;49.34
5812;BME280;2932;52.400;9.558;2023-03-01T09:01:07;102355.44;;;10.20;48.84
5812;BME280;2932;52.400;9.558;2023-03-01T09:03:33;102352.91;;;10.23;48.58
5812;BME280;2932;52.400;9.558;2023-03-01T09:06:02;102348.78;;;10.53;48.60
5812;BME280;2932;52.400;9.558;2023-03-01T09:08:28;102343.38;;;10.62;47.85
5812;BME280;2932;52.400;9.558;2023-03-01T09:10:54;102347.19;;;10.80;47.80
5812;BME280;2932;52.400;9.558;2023-03-01T09:13:19;102343.97;;;11.05;47.89
5812;BME280;2932;52.400;9.558;2023-03-01T09:15:44;102342.13;;;11.14;47.47
5812;BME280;2932;52.400;9.558;2023-03-01T09:18:13;102338.44;;;11.19;47.52
5812;BME280;2932;52.400;9.558;2023-03-01T09:20:38;102337.47;;;11.37;47.23
5812;BME280;2932;52.400;9.558;2023-03-01T09:23:03;102344.31;;;11.67;46.93
5812;BME280;2932;52.400;9.558;2023-03-01T09:25:29;102341.84;;;11.79;45.95
5812;BME280;2932;52.400;9.558;2023-03-01T09:27:54;102330.13;;;11.82;45.76
5812;BME280;2932;52.400;9.558;2023-03-01T09:30:20;102328.19;;;12.05;45.78
5812;BME280;2932;52.400;9.558;2023-03-01T09:32:46;102324.28;;;12.28;44.81
5812;BME280;2932;52.400;9.558;2023-03-01T09:35:12;102322.75;;;12.45;45.07
5812;BME280;2932;52.400;9.558;2023-03-01T09:37:38;102320.13;;;12.71;44.16
5812;BME280;2932;52.400;9.558;2023-03-01T09:40:07;102312.25;;;12.64;43.44
5812;BME280;2932;52.400;9.558;2023-03-01T09:42:51;102324.16;;;12.95;43.92
5812;BME280;2932;52.400;9.558;2023-03-01T09:45:41;102316.47;;;13.32;43.58
5812;BME280;2932;52.400;9.558;2023-03-01T09:48:20;102311.19;;;13.22;43.18
5812;BME280;2932;52.400;9.558;2023-03-01T09:50:50;102302.78;;;13.05;43.18
5812;BME280;2932;52.400;9.558;2023-03-01T09:53:19;102302.38;;;13.20;42.50
5812;BME280;2932;52.400;9.558;2023-03-01T10:04:46;102309.00;;;13.58;42.48
5812;BME280;2932;52.400;9.558;2023-03-01T10:09:57;102309.81;;;14.28;42.14
5812;BME280;2932;52.400;9.558;2023-03-01T10:12:27;102309.31;;;14.34;41.27
5812;BME280;2932;52.400;9.558;2023-03-01T10:15:08;102310.47;;;14.25;41.73
5812;BME280;2932;52.400;9.558;2023-03-01T10:17:48;102305.53;;;14.30;42.13
5812;BME280;2932;52.400;9.558;2023-03-01T10:22:42;102300.88;;;14.69;40.99
5812;BME280;2932;52.400;9.558;2023-03-01T10:25:14;102291.09;;;14.54;40.19
5812;BME280;2932;52.400;9.558;2023-03-01T10:27:51;102294.88;;;14.41;40.64
5812;BME280;2932;52.400;9.558;2023-03-01T10:30:21;102297.91;;;14.74;40.80
5812;BME280;2932;52.400;9.558;2023-03-01T10:32:50;102297.13;;;15.03;40.13
5812;BME280;2932;52.400;9.558;2023-03-01T10:35:24;102296.13;;;15.37;42.11
5812;BME280;2932;52.400;9.558;2023-03-01T10:38:04;102294.00;;;15.05;39.41
5812;BME280;2932;52.400;9.558;2023-03-01T10:40:31;102288.41;;;15.13;39.39
5812;BME280;2932;52.400;9.558;2023-03-01T10:43:04;102293.53;;;15.02;38.94
5812;BME280;2932;52.400;9.558;2023-03-01T10:45:37;102293.38;;;14.99;38.97
5812;BME280;2932;52.400;9.558;2023-03-01T10:50:40;102289.03;;;14.81;37.67
5812;BME280;2932;52.400;9.558;2023-03-01T10:55:43;102287.44;;;14.71;37.38
5812;BME280;2932;52.400;9.558;2023-03-01T10:58:19;102290.94;;;14.42;37.51
5812;BME280;2932;52.400;9.558;2023-03-01T11:00:53;102293.41;;;14.44;37.56
5812;BME280;2932;52.400;9.558;2023-03-01T11:03:31;102277.03;;;14.33;37.61
5812;BME280;2932;52.400;9.558;2023-03-01T11:08:48;102278.03;;;14.38;37.32
5812;BME280;2932;52.400;9.558;2023-03-01T11:11:30;102277.47;;;14.61;37.03
5812;BME280;2932;52.400;9.558;2023-03-01T11:14:07;102281.25;;;14.95;36.94
5812;BME280;2932;52.400;9.558;2023-03-01T11:16:40;102274.28;;;15.39;36.78
5812;BME280;2932;52.400;9.558;2023-03-01T11:24:16;102271.59;;;15.93;35.41
5812;BME280;2932;52.400;9.558;2023-03-01T11:26:45;102271.47;;;16.22;34.71
5812;BME280;2932;52.400;9.558;2023-03-01T11:29:27;102268.13;;;16.74;35.05
5812;BME280;2932;52.400;9.558;2023-03-01T11:31:58;102264.38;;;17.19;34.53
5812;BME280;2932;52.400;9.558;2023-03-01T11:34:40;102266.09;;;17.88;33.81
5812;BME280;2932;52.400;9.558;2023-03-01T11:37:18;102258.72;;;18.23;34.12
5812;BME280;2932;52.400;9.558;2023-03-01T11:42:22;102253.03;;;19.49;31.76
5812;BME280;2932;52.400;9.558;2023-03-01T11:44:54;102245.41;;;20.27;30.82
5812;BME280;2932;52.400;9.558;2023-03-01T11:58:20;102222.03;;;23.54;28.23
5812;BME280;2932;52.400;9.558;2023-03-01T12:08:48;102224.16;;;25.64;26.85
5812;BME280;2932;52.400;9.558;2023-03-01T12:16:44;102207.84;;;27.37;25.21
5812;BME280;2932;52.400;9.558;2023-03-01T12:19:37;102207.97;;;28.21;24.71
5812;BME280;2932;52.400;9.558;2023-03-01T12:22:20;102205.94;;;28.96;23.94
5812;BME280;2932;52.400;9.558;2023-03-01T12:24:54;102204.03;;;29.52;24.35
5812;BME280;2932;52.400;9.558;2023-03-01T12:40:46;102178.44;;;31.72;22.41
5812;BME280;2932;52.400;9.558;2023-03-01T12:51:10;102162.47;;;32.60;22.01
5812;BME280;2932;52.400;9.558;2023-03-01T12:53:40;102152.97;;;32.63;21.94
5812;BME280;2932;52.400;9.558;2023-03-01T12:56:11;102157.63;;;33.26;21.47
5812;BME280;2932;52.400;9.558;2023-03-01T12:58:45;102156.75;;;33.60;21.33
5812;BME280;2932;52.400;9.558;2023-03-01T13:01:51;102149.00;;;33.17;21.27
5812;BME280;2932;52.400;9.558;2023-03-01T13:10:26;102144.06;;;33.70;21.75
5812;BME280;2932;52.400;9.558;2023-03-01T13:17:53;102125.88;;;34.90;20.65
5812;BME280;2932;52.400;9.558;2023-03-01T13:20:22;102131.91;;;34.56;20.61
5812;BME280;2932;52.400;9.558;2023-03-01T13:23:04;102120.41;;;34.56;20.54
5812;BME280;2932;52.400;9.558;2023-03-01T13:25:30;102126.97;;;34.56;20.59
5812;BME280;2932;52.400;9.558;2023-03-01T13:30:58;102118.97;;;34.51;20.78
5812;BME280;2932;52.400;9.558;2023-03-01T13:35:56;102117.38;;;34.32;20.75
5812;BME280;2932;52.400;9.558;2023-03-01T13:41:08;102101.59;;;34.64;20.26
5812;BME280;2932;52.400;9.558;2023-03-01T13:43:36;102107.81;;;34.62;20.58
5812;BME280;2932;52.400;9.558;2023-03-01T13:46:09;102101.00;;;34.10;20.83
5812;BME280;2932;52.400;9.558;2023-03-01T13:48:37;102112.59;;;34.47;20.33
5812;BME280;2932;52.400;9.558;2023-03-01T13:51:09;102102.22;;;34.59;20.46
5812;BME280;2932;52.400;9.558;2023-03-01T13:53:37;102100.16;;;34.68;20.40
5812;BME280;2932;52.400;9.558;2023-03-01T13:56:08;102086.88;;;34.89;20.00
5812;BME280;2932;52.400;9.558;2023-03-01T13:58:46;102093.41;;;34.53;20.44
5812;BME280;2932;52.400;9.558;2023-03-01T14:01:38;102083.63;;;34.23;20.61
5812;BME280;2932;52.400;9.558;2023-03-01T14:04:38;102085.28;;;34.52;20.32
5812;BME280;2932;52.400;9.558;2023-03-01T14:07:11;102081.94;;;34.35;20.43
5812;BME280;2932;52.400;9.558;2023-03-01T14:09:48;102086.91;;;34.03;20.92
5812;BME280;2932;52.400;9.558;2023-03-01T14:12:26;102080.00;;;34.59;20.84
5812;BME280;2932;52.400;9.558;2023-03-01T14:15:15;102088.81;;;34.83;20.23
5812;BME280;2932;52.400;9.558;2023-03-01T14:20:21;102089.81;;;33.32;20.69
5812;BME280;2932;52.400;9.558;2023-03-01T14:22:49;102075.28;;;33.98;20.58
5812;BME280;2932;52.400;9.558;2023-03-01T14:30:50;102073.31;;;34.90;20.50
5812;BME280;2932;52.400;9.558;2023-03-01T14:33:33;102063.66;;;35.20;20.39
5812;BME280;2932;52.400;9.558;2023-03-01T14:38:49;102055.88;;;34.84;20.70
5812;BME280;2932;52.400;9.558;2023-03-01T14:41:17;102054.28;;;34.56;20.41
5812;BME280;2932;52.400;9.558;2023-03-01T14:43:46;102046.00;;;34.67;20.59
5812;BME280;2932;52.400;9.558;2023-03-01T14:46:21;102049.34;;;34.74;20.77
5812;BME280;2932;52.400;9.558;2023-03-01T14:48:50;102043.31;;;35.42;20.54
5812;BME280;2932;52.400;9.558;2023-03-01T14:51:16;102038.34;;;35.42;20.51
5812;BME280;2932;52.400;9.558;2023-03-01T14:53:41;102040.03;;;35.07;20.38
5812;BME280;2932;52.400;9.558;2023-03-01T14:56:13;102037.69;;;34.60;20.46
5812;BME280;2932;52.400;9.558;2023-03-01T14:58:39;102034.81;;;34.32;20.11
5812;BME280;2932;52.400;9.558;2023-03-01T15:01:05;102031.13;;;34.41;20.64
5812;BME280;2932;52.400;9.558;2023-03-01T15:03:42;102025.22;;;34.63;20.79
5812;BME280;2932;52.400;9.558;2023-03-01T15:06:14;102035.91;;;34.81;20.28
5812;BME280;2932;52.400;9.558;2023-03-01T15:08:46;102026.03;;;34.36;20.41
5812;BME280;2932;52.400;9.558;2023-03-01T15:11:22;102020.75;;;34.43;20.60
5812;BME280;2932;52.400;9.558;2023-03-01T15:13:50;102018.34;;;34.69;20.61
5812;BME280;2932;52.400;9.558;2023-03-01T15:16:22;102011.81;;;34.41;20.89
5812;BME280;2932;52.400;9.558;2023-03-01T15:18:51;102010.69;;;34.57;20.69
5812;BME280;2932;52.400;9.558;2023-03-01T15:23:52;102001.72;;;34.09;20.45
5812;BME280;2932;52.400;9.558;2023-03-01T15:28:50;102015.34;;;32.41;20.60
5812;BME280;2932;52.400;9.558;2023-03-01T15:31:23;102005.88;;;32.32;20.61
5812;BME280;2932;52.400;9.558;2023-03-01T15:33:49;102010.44;;;31.95;21.04
5812;BME280;2932;52.400;9.558;2023-03-01T15:38:59;101996.28;;;31.78;21.55
5812;BME280;2932;52.400;9.558;2023-03-01T15:41:46;101995.22;;;32.32;20.73
5812;BME280;2932;52.400;9.558;2023-03-01T15:44:17;101994.47;;;32.41;21.24
5812;BME280;2932;52.400;9.558;2023-03-01T15:46:46;101987.25;;;32.71;21.23
5812;BME280;2932;52.400;9.558;2023-03-01T15:51:56;102001.25;;;32.00;21.52
5812;BME280;2932;52.400;9.558;2023-03-01T15:54:24;101986.69;;;30.80;21.50
5812;BME280;2932;52.400;9.558;2023-03-01T15:56:50;101981.16;;;30.44;21.67
5812;BME280;2932;52.400;9.558;2023-03-01T15:59:16;101985.59;;;30.32;21.85
5812;BME280;2932;52.400;9.558;2023-03-01T16:01:42;101977.94;;;30.58;22.10
5812;BME280;2932;52.400;9.558;2023-03-01T16:04:11;101982.44;;;30.43;22.00
5812;BME280;2932;52.400;9.558;2023-03-01T16:06:53;101973.56;;;30.25;22.29
5812;BME280;2932;52.400;9.558;2023-03-01T16:09:25;101967.94;;;29.24;23.00
5812;BME280;2932;52.400;9.558;2023-03-01T16:11:53;101970.81;;;29.40;22.53
5812;BME280;2932;52.400;9.558;2023-03-01T16:14:18;101974.44;;;28.68;22.90
5812;BME280;2932;52.400;9.558;2023-03-01T16:16:45;101975.25;;;28.49;23.42
5812;BME280;2932;52.400;9.558;2023-03-01T16:19:11;101981.66;;;28.10;23.47
5812;BME280;2932;52.400;9.558;2023-03-01T16:21:37;101974.75;;;27.87;23.64
5812;BME280;2932;52.400;9.558;2023-03-01T16:24:04;101964.75;;;27.79;23.74
5812;BME280;2932;52.400;9.558;2023-03-01T16:26:29;101982.19;;;27.81;23.88
5812;BME280;2932;52.400;9.558;2023-03-01T16:28:56;101976.13;;;26.95;24.43
5812;BME280;2932;52.400;9.558;2023-03-01T16:31:22;101983.28;;;27.10;24.46
5812;BME280;2932;52.400;9.558;2023-03-01T16:33:48;101976.84;;;26.72;24.68
5812;BME280;2932;52.400;9.558;2023-03-01T16:36:17;101975.88;;;26.52;25.08
5812;BME280;2932;52.400;9.558;2023-03-01T16:38:42;101980.25;;;25.78;25.55
5812;BME280;2932;52.400;9.558;2023-03-01T16:41:13;101985.06;;;24.27;26.62
5812;BME280;2932;52.400;9.558;2023-03-01T16:43:39;101994.88;;;22.69;27.60
5812;BME280;2932;52.400;9.558;2023-03-01T16:46:16;102000.44;;;21.15;29.10
5812;BME280;2932;52.400;9.558;2023-03-01T16:48:43;101997.34;;;20.07;30.09
5812;BME280;2932;52.400;9.558;2023-03-01T16:51:08;102003.09;;;19.04;32.40
5812;BME280;2932;52.400;9.558;2023-03-01T16:53:35;102006.22;;;19.18;35.20
5812;BME280;2932;52.400;9.558;2023-03-01T16:56:05;102010.63;;;18.80;33.96
5812;BME280;2932;52.400;9.558;2023-03-01T16:58:31;102006.72;;;19.04;34.97
5812;BME280;2932;52.400;9.558;2023-03-01T17:01:00;102008.19;;;18.44;32.55
5812;BME280;2932;52.400;9.558;2023-03-01T17:03:28;102008.53;;;17.60;33.08
5812;BME280;2932;52.400;9.558;2023-03-01T17:05:54;102010.94;;;17.14;33.40
5812;BME280;2932;52.400;9.558;2023-03-01T17:08:19;102017.06;;;16.64;33.98
5812;BME280;2932;52.400;9.558;2023-03-01T17:10:45;102017.06;;;16.40;34.34
5812;BME280;2932;52.400;9.558;2023-03-01T17:13:11;102013.72;;;16.22;34.50
5812;BME280;2932;52.400;9.558;2023-03-01T17:15:40;102021.75;;;16.11;35.11
5812;BME280;2932;52.400;9.558;2023-03-01T17:18:07;102017.22;;;15.94;35.00
5812;BME280;2932;52.400;9.558;2023-03-01T17:20:33;102017.81;;;15.88;34.99
5812;BME280;2932;52.400;9.558;2023-03-01T17:22:58;102021.72;;;15.75;35.41
5812;BME280;2932;52.400;9.558;2023-03-01T17:25:24;102022.88;;;15.61;35.80
5812;BME280;2932;52.400;9.558;2023-03-01T17:27:49;102021.56;;;15.47;35.84
5812;BME280;2932;52.400;9.558;2023-03-01T17:30:15;102034.78;;;15.38;35.77
5812;BME280;2932;52.400;9.558;2023-03-01T17:32:40;102041.25;;;15.29;35.98
5812;BME280;2932;52.400;9.558;2023-03-01T17:35:06;102036.56;;;15.21;36.33
5812;BME280;2932;52.400;9.558;2023-03-01T17:37:32;102045.06;;;15.25;36.31
5812;BME280;2932;52.400;9.558;2023-03-01T17:39:58;102042.06;;;14.97;36.60
5812;BME280;2932;52.400;9.558;2023-03-01T17:42:23;102047.28;;;14.98;36.92
5812;BME280;2932;52.400;9.558;2023-03-01T17:44:48;102049.53;;;15.05;36.88
5812;BME280;2932;52.400;9.558;2023-03-01T17:47:14;102048.03;;;15.08;36.97
5812;BME280;2932;52.400;9.558;2023-03-01T17:49:39;102045.78;;;14.80;37.21
5812;BME280;2932;52.400;9.558;2023-03-01T17:52:04;102047.16;;;14.74;37.33
5812;BME280;2932;52.400;9.558;2023-03-01T17:54:30;102053.63;;;14.66;37.38
5812;BME280;2932;52.400;9.558;2023-03-01T17:56:57;102053.53;;;14.54;37.53
5812;BME280;2932;52.400;9.558;2023-03-01T17:59:23;102052.84;;;14.57;37.82
5812;BME280;2932;52.400;9.558;2023-03-01T18:01:48;102052.28;;;14.43;37.54
5812;BME280;2932;52.400;9.558;2023-03-01T18:04:14;102045.81;;;14.30;37.70
5812;BME280;2932;52.400;9.558;2023-03-01T18:06:40;102041.63;;;14.15;38.02
5812;BME280;2932;52.400;9.558;2023-03-01T18:09:05;102052.75;;;14.15;38.02
5812;BME280;2932;52.400;9.558;2023-03-01T18:11:32;102053.91;;;14.14;38.15
5812;BME280;2932;52.400;9.558;2023-03-01T18:13:58;102055.41;;;14.03;38.43
5812;BME280;2932;52.400;9.558;2023-03-01T18:16:23;102060.91;;;13.91;38.57
5812;BME280;2932;52.400;9.558;2023-03-01T18:18:53;102060.84;;;13.99;39.00
5812;BME280;2932;52.400;9.558;2023-03-01T18:21:19;102046.91;;;13.99;39.22
5812;BME280;2932;52.400;9.558;2023-03-01T18:23:46;102044.44;;;13.68;39.78
5812;BME280;2932;52.400;9.558;2023-03-01T18:26:13;102041.06;;;13.54;40.29
5812;BME280;2932;52.400;9.558;2023-03-01T18:28:41;102046.97;;;13.53;40.44
5812;BME280;2932;52.400;9.558;2023-03-01T18:31:09;102039.75;;;13.52;40.37
5812;BME280;2932;52.400;9.558;2023-03-01T18:33:36;102043.72;;;13.33;40.74
5812;BME280;2932;52.400;9.558;2023-03-01T18:36:02;102036.50;;;13.41;40.57
5812;BME280;2932;52.400;9.558;2023-03-01T18:38:28;102044.84;;;13.41;40.69
5812;BME280;2932;52.400;9.558;2023-03-01T18:40:54;102035.72;;;13.15;41.17
5812;BME280;2932;52.400;9.558;2023-03-01T18:43:20;102038.69;;;13.18;41.04
5812;BME280;2932;52.400;9.558;2023-03-01T18:45:46;102042.91;;;13.24;40.96
5812;BME280;2932;52.400;9.558;2023-03-01T18:48:11;102042.91;;;12.90;41.24
5812;BME280;2932;52.400;9.558;2023-03-01T18:50:38;102039.97;;;12.69;41.52
5812;BME280;2932;52.400;9.558;2023-03-01T18:53:03;102040.78;;;12.52;41.91
5812;BME280;2932;52.400;9.558;2023-03-01T18:55:29;102045.69;;;12.55;42.03
5812;BME280;2932;52.400;9.558;2023-03-01T18:57:54;102042.22;;;12.50;42.09
5812;BME280;2932;52.400;9.558;2023-03-01T19:00:20;102048.25;;;12.26;42.48